createdAt,value
2019-02-06T00:01:41.687Z,6.30
2019-02-06T00:06:45.688Z,6.60
2019-02-06T00:11:49.699Z,6.30
2019-02-06T00:16:54.477Z,6.30
2019-02-06T00:21:58.703Z,6.20
2019-02-06T00:27:02.930Z,6.30
2019-02-06T00:32:07.608Z,6.30
2019-02-06T00:37:11.539Z,6.40
2019-02-06T00:42:15.392Z,6.20
2019-02-06T00:47:19.243Z,6.50
2019-02-06T00:52:23.094Z,6.20
2019-02-06T00:57:26.955Z,6.30
2019-02-06T01:02:30.954Z,6.30
2019-02-06T01:07:34.952Z,6.30
2019-02-06T01:12:38.956Z,6.40
2019-02-06T01:17:42.904Z,6.50
2019-02-06T01:22:46.904Z,6.50
2019-02-06T01:27:50.838Z,6.30
2019-02-06T01:32:54.762Z,6.30
2019-02-06T01:37:58.759Z,6.00
2019-02-06T01:43:02.692Z,6.00
2019-02-06T01:48:06.639Z,6.50
2019-02-06T01:53:10.567Z,6.10
2019-02-06T01:58:14.495Z,6.00
2019-02-06T02:03:18.327Z,6.10
2019-02-06T02:08:22.343Z,6.40
2019-02-06T02:13:26.260Z,6.00
2019-02-06T02:18:30.183Z,6.00
2019-02-06T02:23:34.254Z,6.20
2019-02-06T02:28:38.324Z,6.10
2019-02-06T02:33:42.394Z,6.00
2019-02-06T02:38:46.439Z,6.20
2019-02-06T02:43:50.492Z,6.30
2019-02-06T02:48:54.536Z,6.10
2019-02-06T02:53:58.580Z,6.30
2019-02-06T02:59:02.679Z,6.50
2019-02-06T03:04:14.738Z,6.40
2019-02-06T03:09:18.787Z,6.30
2019-02-06T03:14:22.839Z,6.30
2019-02-06T03:19:26.897Z,6.50
2019-02-06T03:24:31.008Z,6.40
2019-02-06T03:29:35.080Z,6.40
2019-02-06T03:34:38.946Z,6.20
2019-02-06T03:39:42.970Z,6.30
2019-02-06T03:44:47.035Z,6.40
2019-02-06T03:49:51.090Z,6.20
2019-02-06T03:54:55.137Z,6.30
2019-02-06T03:59:59.099Z,6.40
2019-02-06T04:05:03.395Z,6.30
2019-02-06T04:10:09.055Z,6.30
2019-02-06T04:15:13.359Z,6.40
2019-02-06T04:20:17.446Z,6.30
2019-02-06T04:25:21.529Z,6.30
2019-02-06T04:30:25.886Z,6.30
2019-02-06T04:35:29.910Z,6.50
2019-02-06T04:40:33.879Z,6.30
2019-02-06T04:45:37.895Z,6.50
2019-02-06T04:50:41.825Z,6.30
2019-02-06T04:55:46.123Z,6.40
2019-02-06T05:00:49.987Z,6.40
2019-02-06T05:05:53.849Z,6.30
2019-02-06T05:10:57.712Z,6.50
2019-02-06T05:16:01.724Z,6.50
2019-02-06T05:21:06.130Z,6.20
2019-02-06T05:26:10.148Z,6.30
2019-02-06T05:31:13.999Z,6.50
2019-02-06T05:36:17.868Z,6.30
2019-02-06T05:41:21.809Z,6.60
2019-02-06T05:46:26.147Z,6.30
2019-02-06T05:51:30.075Z,6.60
2019-02-06T05:56:33.947Z,6.30
2019-02-06T06:01:37.795Z,6.30
2019-02-06T06:06:41.826Z,6.30
2019-02-06T06:11:45.842Z,6.40
2019-02-06T06:16:49.695Z,6.70
2019-02-06T06:21:53.632Z,6.20
2019-02-06T06:26:57.722Z,6.20
2019-02-06T06:32:01.596Z,6.40
2019-02-06T06:37:05.603Z,6.50
2019-02-06T06:42:09.613Z,6.30
2019-02-06T06:47:13.775Z,6.30
2019-02-06T06:52:18.188Z,6.50
2019-02-06T06:57:24.077Z,6.40
2019-02-06T07:02:28.018Z,6.20
2019-02-06T07:07:31.891Z,6.50
2019-02-06T07:12:35.742Z,6.30
2019-02-06T07:17:39.729Z,6.30
2019-02-06T07:22:43.735Z,6.50
2019-02-06T07:27:47.755Z,6.20
2019-02-06T07:32:51.985Z,6.40
2019-02-06T07:37:55.987Z,6.50
2019-02-06T07:43:00.014Z,6.30
2019-02-06T07:48:03.950Z,6.50
2019-02-06T07:53:07.983Z,6.30
2019-02-06T07:58:12.029Z,6.50
2019-02-06T08:03:15.991Z,6.30
2019-02-06T08:08:35.345Z,6.70
2019-02-06T08:13:29.801Z,6.30
2019-02-06T08:18:34.211Z,6.30
2019-02-06T08:23:38.079Z,6.30
2019-02-06T08:28:42.090Z,6.20
2019-02-06T08:33:46.043Z,6.50
2019-02-06T08:38:50.252Z,6.40
2019-02-06T08:43:54.674Z,6.70
2019-02-06T08:48:58.534Z,6.70
2019-02-06T08:54:02.539Z,6.30
2019-02-06T08:59:06.714Z,6.80
2019-02-06T09:04:10.710Z,6.70
2019-02-06T09:09:15.001Z,6.40
2019-02-06T09:14:19.087Z,6.30
2019-02-06T09:19:23.078Z,6.60
2019-02-06T09:24:27.059Z,6.80
2019-02-06T09:29:30.962Z,6.60
2019-02-06T09:34:35.079Z,6.60
2019-02-06T09:39:39.002Z,6.50
2019-02-06T09:44:42.940Z,6.60
2019-02-06T09:49:49.682Z,6.80
2019-02-06T09:54:52.623Z,6.70
2019-02-06T09:59:56.827Z,6.60
2019-02-06T10:05:00.751Z,6.90
2019-02-06T10:10:06.461Z,6.80
2019-02-06T10:15:12.114Z,6.90
2019-02-06T10:20:17.063Z,6.90
2019-02-06T10:25:21.142Z,7.10
2019-02-06T10:30:33.993Z,7.10
2019-02-06T10:35:38.003Z,7.20
2019-02-06T10:40:42.104Z,7.10
2019-02-06T10:45:46.086Z,7.20
2019-02-06T10:50:51.763Z,7.10
2019-02-06T10:55:55.780Z,7.40
2019-02-06T11:01:02.177Z,7.20
2019-02-06T11:06:06.222Z,7.30
2019-02-06T11:11:10.176Z,10.10
2019-02-06T11:16:14.171Z,9.90
2019-02-06T11:21:18.110Z,8.90
2019-02-06T11:26:22.023Z,8.60
2019-02-06T11:31:26.032Z,8.30
2019-02-06T11:36:29.966Z,8.40
2019-02-06T11:41:33.899Z,8.40
2019-02-06T11:46:37.770Z,8.30
2019-02-06T11:51:41.624Z,8.30
2019-02-06T11:56:45.495Z,8.40
2019-02-06T12:01:52.430Z,8.30
2019-02-06T12:06:56.436Z,8.30
2019-02-06T12:12:00.450Z,8.40
2019-02-06T12:17:04.501Z,8.30
2019-02-06T12:22:08.565Z,8.40
2019-02-06T12:27:13.083Z,8.20
2019-02-06T12:32:17.107Z,8.30
2019-02-06T12:37:21.102Z,8.20
2019-02-06T12:42:25.176Z,8.40
2019-02-06T12:47:29.108Z,8.30
2019-02-06T12:52:32.978Z,8.40
2019-02-06T12:57:37.605Z,8.40
2019-02-06T13:02:41.977Z,8.40
2019-02-06T13:07:46.376Z,8.60
2019-02-06T13:12:50.530Z,8.60
2019-02-06T13:17:55.012Z,8.30
2019-02-06T13:22:59.728Z,8.60
2019-02-06T13:28:04.765Z,8.60
2019-02-06T13:33:11.639Z,8.60
2019-02-06T13:38:15.206Z,8.60
2019-02-06T13:43:19.779Z,8.60
2019-02-06T13:48:23.961Z,8.60
2019-02-06T13:53:27.974Z,8.70
2019-02-06T13:58:31.994Z,8.60
2019-02-06T14:03:36.017Z,8.90
2019-02-06T14:08:40.774Z,10.20
2019-02-06T14:13:44.772Z,9.20
2019-02-06T14:18:49.193Z,9.30
2019-02-06T14:24:06.093Z,9.00
2019-02-06T14:29:46.467Z,9.00
2019-02-06T14:35:11.484Z,9.20
2019-02-06T14:40:40.844Z,9.10
2019-02-06T14:46:19.868Z,8.90
2019-02-06T14:52:20.419Z,9.20
2019-02-06T14:58:13.355Z,9.00
2019-02-06T15:04:07.178Z,8.90
2019-02-06T15:09:43.567Z,8.90
2019-02-06T15:15:15.934Z,8.90
2019-02-06T15:20:33.782Z,8.90
2019-02-06T15:26:27.003Z,8.90
2019-02-06T15:32:22.731Z,9.00
2019-02-06T15:37:51.536Z,9.00
2019-02-06T15:43:43.002Z,8.90
2019-02-06T15:49:07.131Z,9.00
2019-02-06T15:54:48.331Z,9.00
2019-02-06T16:00:32.882Z,9.00
2019-02-06T16:06:23.521Z,9.00
2019-02-06T16:12:00.500Z,9.10
2019-02-06T16:17:56.223Z,8.90
2019-02-06T16:23:38.689Z,9.00
2019-02-06T16:29:32.766Z,8.80
2019-02-06T16:34:57.819Z,8.90
2019-02-06T16:40:37.510Z,9.00
2019-02-06T16:46:22.043Z,9.10
2019-02-06T16:51:56.726Z,8.90
2019-02-06T16:57:32.904Z,8.80
2019-02-06T17:03:33.351Z,9.00
2019-02-06T17:09:18.919Z,9.10
2019-02-06T17:15:05.938Z,8.90
2019-02-06T17:20:38.759Z,8.80
2019-02-06T17:26:19.861Z,8.90
2019-02-06T17:32:12.835Z,9.10
2019-02-06T17:37:58.059Z,8.90
2019-02-06T17:43:39.222Z,8.90
2019-02-06T17:49:28.122Z,9.00
2019-02-06T17:55:08.311Z,8.80
2019-02-06T18:00:38.883Z,8.90
2019-02-06T18:05:43.096Z,8.90
2019-02-06T18:10:47.192Z,8.90
2019-02-06T18:15:51.138Z,8.90
2019-02-06T18:20:55.170Z,9.10
2019-02-06T18:25:59.380Z,9.20
2019-02-06T18:31:03.344Z,8.90
2019-02-06T18:36:07.799Z,9.00
2019-02-06T18:41:12.090Z,8.90
2019-02-06T18:46:16.554Z,8.90
2019-02-06T18:51:20.642Z,8.90
2019-02-06T18:56:24.763Z,8.90
2019-02-06T19:01:28.833Z,8.80
2019-02-06T19:06:32.781Z,8.80
2019-02-06T19:11:36.860Z,9.00
2019-02-06T19:16:40.805Z,9.10
2019-02-06T19:21:44.881Z,8.90
2019-02-06T19:26:48.887Z,9.00
2019-02-06T19:31:52.847Z,8.80
2019-02-06T19:37:01.170Z,8.80
2019-02-06T19:42:07.250Z,8.90
2019-02-06T19:47:15.569Z,8.90
2019-02-06T19:52:19.341Z,8.80
2019-02-06T19:57:25.954Z,8.90
2019-02-06T20:02:29.050Z,8.90
2019-02-06T20:07:33.069Z,9.00
2019-02-06T20:12:39.079Z,8.80
2019-02-06T20:17:44.619Z,9.00
2019-02-06T20:22:51.315Z,9.70
2019-02-06T20:27:55.806Z,9.20
2019-02-06T20:32:59.867Z,9.10
2019-02-06T20:38:03.823Z,8.90
2019-02-06T20:43:07.839Z,9.20
2019-02-06T20:48:11.743Z,8.90
2019-02-06T20:53:16.085Z,9.00
2019-02-06T20:58:20.124Z,8.90
2019-02-06T21:03:24.264Z,8.90
2019-02-06T21:08:28.259Z,8.90
2019-02-06T21:13:33.454Z,8.90
2019-02-06T21:18:37.891Z,8.90
2019-02-06T21:23:41.828Z,9.20
2019-02-06T21:28:45.856Z,8.90
2019-02-06T21:33:49.996Z,8.90
2019-02-06T21:38:54.018Z,8.90
2019-02-06T21:43:58.315Z,8.90
2019-02-06T21:49:02.347Z,8.90
2019-02-06T21:54:06.683Z,8.90
2019-02-06T21:59:11.732Z,9.10
2019-02-06T22:04:15.866Z,9.00
2019-02-06T22:09:20.074Z,8.80
2019-02-06T22:14:24.106Z,8.90
2019-02-06T22:19:28.151Z,8.90
2019-02-06T22:24:32.075Z,8.90
2019-02-06T22:29:36.063Z,9.10
2019-02-06T22:34:40.218Z,9.00
2019-02-06T22:39:44.189Z,8.80
2019-02-06T22:44:48.223Z,8.90
2019-02-06T22:49:52.086Z,8.90
2019-02-06T22:54:56.119Z,8.90
2019-02-06T23:00:00.041Z,8.80
2019-02-06T23:05:04.799Z,8.90
2019-02-06T23:10:09.293Z,8.90
2019-02-06T23:15:13.828Z,8.90
2019-02-06T23:20:18.126Z,9.00
2019-02-06T23:25:22.187Z,9.00
2019-02-06T23:30:26.214Z,9.00
2019-02-06T23:35:30.296Z,8.90
2019-02-06T23:40:34.319Z,8.80
2019-02-06T23:45:38.707Z,8.90
2019-02-06T23:50:42.844Z,9.00
2019-02-06T23:55:47.091Z,9.00
